createdAt,value
2023-03-02T00:01:48.363Z,33.53
2023-03-02T00:04:22.800Z,30.23
2023-03-02T00:06:56.316Z,32.00
2023-03-02T00:11:56.068Z,31.88
2023-03-02T00:14:29.124Z,31.63
2023-03-02T00:17:02.778Z,32.15
2023-03-02T00:19:31.737Z,32.55
2023-03-02T00:22:01.240Z,32.50
2023-03-02T00:24:31.317Z,32.53
2023-03-02T00:27:03.180Z,33.08
2023-03-02T00:29:32.015Z,33.53
2023-03-02T00:32:00.882Z,34.75
2023-03-02T00:34:33.736Z,32.42
2023-03-02T00:37:02.709Z,32.10
2023-03-02T00:39:32.918Z,33.67
2023-03-02T00:42:01.979Z,34.38
2023-03-02T00:44:31.153Z,30.73
2023-03-02T00:47:03.369Z,33.13
2023-03-02T00:49:32.101Z,33.13
2023-03-02T00:52:00.874Z,33.95
2023-03-02T00:54:29.708Z,35.60
2023-03-02T00:57:00.360Z,33.15
2023-03-02T00:59:30.126Z,34.70
2023-03-02T01:02:22.659Z,35.25
2023-03-02T01:04:53.259Z,34.55
2023-03-02T01:07:22.368Z,30.20
2023-03-02T01:09:51.149Z,33.95
2023-03-02T01:12:21.563Z,35.97
2023-03-02T01:14:50.932Z,34.63
2023-03-02T01:17:22.174Z,32.25
2023-03-02T01:19:53.609Z,34.22
2023-03-02T01:22:22.866Z,34.80
2023-03-02T01:24:54.367Z,33.33
2023-03-02T01:27:25.421Z,33.40
2023-03-02T01:29:54.762Z,35.97
2023-03-02T01:32:23.499Z,33.88
2023-03-02T01:34:52.828Z,35.65
2023-03-02T01:37:23.075Z,34.08
2023-03-02T01:39:52.152Z,31.60
2023-03-02T01:42:21.076Z,34.80
2023-03-02T01:44:54.368Z,36.47
2023-03-02T01:47:26.696Z,34.28
2023-03-02T01:50:07.212Z,35.40
2023-03-02T01:52:40.535Z,35.00
2023-03-02T01:55:13.001Z,34.47
2023-03-02T01:57:45.718Z,36.53
2023-03-02T02:00:22.041Z,37.28
2023-03-02T02:02:52.270Z,36.33
2023-03-02T02:05:26.932Z,34.90
2023-03-02T02:07:57.317Z,34.80
2023-03-02T02:10:28.189Z,35.90
2023-03-02T02:12:56.974Z,33.75
2023-03-02T02:15:28.297Z,35.08
2023-03-02T02:20:38.699Z,32.80
2023-03-02T02:23:20.597Z,33.08
2023-03-02T02:26:03.085Z,31.52
2023-03-02T02:28:36.923Z,31.55
2023-03-02T02:31:12.124Z,34.88
2023-03-02T02:33:43.305Z,31.60
2023-03-02T02:36:19.789Z,33.58
2023-03-02T02:38:52.771Z,33.50
2023-03-02T02:41:27.530Z,32.90
2023-03-02T02:43:57.397Z,31.67
2023-03-02T02:46:27.450Z,31.33
2023-03-02T02:48:57.723Z,33.40
2023-03-02T02:51:28.664Z,32.08
2023-03-02T02:53:59.912Z,31.63
2023-03-02T02:56:35.825Z,31.88
2023-03-02T02:59:08.267Z,34.47
2023-03-02T03:01:37.302Z,29.92
2023-03-02T03:04:07.692Z,32.28
2023-03-02T03:06:42.574Z,29.67
2023-03-02T03:09:14.050Z,30.90
2023-03-02T03:11:51.367Z,31.02
2023-03-02T03:14:28.107Z,30.98
2023-03-02T03:16:57.655Z,31.17
2023-03-02T03:19:28.983Z,30.10
2023-03-02T03:22:00.819Z,30.23
2023-03-02T03:24:36.523Z,33.70
2023-03-02T03:27:10.119Z,30.77
2023-03-02T03:29:45.596Z,30.65
2023-03-02T03:32:16.224Z,32.80
2023-03-02T03:34:45.235Z,32.45
2023-03-02T03:37:22.116Z,32.90
2023-03-02T03:39:51.690Z,29.35
2023-03-02T03:42:22.702Z,30.80
2023-03-02T03:44:51.688Z,32.63
2023-03-02T03:47:20.979Z,30.33
2023-03-02T03:49:50.876Z,31.17
2023-03-02T03:52:30.764Z,31.05
2023-03-02T03:55:09.230Z,29.10
2023-03-02T03:57:39.780Z,28.60
2023-03-02T04:00:15.076Z,31.92
2023-03-02T04:02:48.637Z,29.67
2023-03-02T04:05:17.659Z,28.83
2023-03-02T04:07:46.852Z,29.38
2023-03-02T04:10:15.766Z,32.28
2023-03-02T04:12:48.048Z,30.10
2023-03-02T04:15:18.076Z,30.58
2023-03-02T04:17:49.208Z,28.60
2023-03-02T04:20:21.312Z,30.98
2023-03-02T04:22:54.843Z,28.70
2023-03-02T04:25:25.939Z,28.08
2023-03-02T04:27:59.942Z,27.85
2023-03-02T04:30:33.225Z,28.05
2023-03-02T04:33:04.513Z,29.27
2023-03-02T04:35:35.106Z,28.75
2023-03-02T04:38:05.268Z,28.73
2023-03-02T04:40:34.226Z,27.92
2023-03-02T04:43:04.452Z,31.00
2023-03-02T04:45:33.431Z,28.85
2023-03-02T04:48:02.156Z,27.10
2023-03-02T04:50:31.022Z,26.15
2023-03-02T04:52:59.826Z,27.10
2023-03-02T04:55:29.088Z,27.73
2023-03-02T04:57:57.965Z,26.80
2023-03-02T05:00:29.143Z,28.20
2023-03-02T05:02:58.321Z,27.35
2023-03-02T05:05:33.640Z,27.88
2023-03-02T05:08:04.784Z,28.13
2023-03-02T05:10:33.926Z,25.17
2023-03-02T05:13:05.158Z,26.58
2023-03-02T05:15:37.753Z,25.23
2023-03-02T05:18:09.226Z,26.58
2023-03-02T05:20:38.481Z,27.58
2023-03-02T05:23:11.392Z,26.40
2023-03-02T05:25:40.189Z,27.98
2023-03-02T05:28:08.887Z,25.58
2023-03-02T05:30:39.051Z,25.63
2023-03-02T05:33:18.203Z,27.83
2023-03-02T05:35:49.690Z,24.50
2023-03-02T05:38:21.260Z,25.67
2023-03-02T05:40:50.636Z,25.48
2023-03-02T05:43:21.845Z,25.10
2023-03-02T05:46:49.706Z,25.25
2023-03-02T05:49:20.157Z,25.45
2023-03-02T05:51:49.175Z,25.17
2023-03-02T05:54:18.383Z,26.45
2023-03-02T05:56:48.894Z,26.08
2023-03-02T05:59:19.010Z,24.60
2023-03-02T06:01:50.440Z,25.73
2023-03-02T06:04:20.577Z,24.45
2023-03-02T06:06:49.340Z,27.52
2023-03-02T06:09:20.242Z,25.33
2023-03-02T06:11:51.380Z,24.65
2023-03-02T06:14:20.227Z,24.23
2023-03-02T06:16:49.350Z,25.00
2023-03-02T06:19:18.101Z,23.58
2023-03-02T06:21:50.373Z,24.75
2023-03-02T06:24:19.322Z,24.48
2023-03-02T06:26:48.072Z,26.67
2023-03-02T06:29:17.155Z,27.27
2023-03-02T06:31:45.900Z,24.35
2023-03-02T06:34:14.965Z,26.58
2023-03-02T06:36:43.740Z,25.40
2023-03-02T06:39:16.767Z,25.48
2023-03-02T06:41:46.949Z,28.58
2023-03-02T06:44:19.122Z,26.77
2023-03-02T06:46:47.950Z,24.75
2023-03-02T06:49:16.637Z,25.55
2023-03-02T06:51:45.452Z,27.45
2023-03-02T06:54:15.545Z,27.50
2023-03-02T06:56:44.318Z,24.88
2023-03-02T06:59:12.991Z,25.75
2023-03-02T07:01:44.495Z,28.90
2023-03-02T07:04:13.284Z,25.58
2023-03-02T07:06:42.014Z,26.50
2023-03-02T07:09:11.006Z,29.08
2023-03-02T07:11:44.486Z,27.63
2023-03-02T07:14:13.362Z,28.30
2023-03-02T07:16:42.525Z,26.73
2023-03-02T07:19:14.326Z,29.02
2023-03-02T07:21:43.174Z,28.35
2023-03-02T07:24:12.071Z,27.08
2023-03-02T07:26:40.852Z,27.77
2023-03-02T07:29:11.056Z,27.42
2023-03-02T07:31:44.369Z,28.90
2023-03-02T07:34:13.096Z,28.45
2023-03-02T07:36:41.872Z,28.75
2023-03-02T07:39:10.553Z,30.25
2023-03-02T07:41:39.330Z,26.38
2023-03-02T07:44:11.734Z,27.27
2023-03-02T07:46:40.613Z,28.75
2023-03-02T07:49:09.414Z,27.67
2023-03-02T07:51:38.239Z,30.15
2023-03-02T07:54:07.082Z,28.20
2023-03-02T07:56:35.885Z,26.40
2023-03-02T07:59:06.966Z,25.35
2023-03-02T08:01:37.137Z,25.95
2023-03-02T08:04:06.258Z,27.35
2023-03-02T08:06:35.025Z,28.27
2023-03-02T08:09:04.180Z,30.52
2023-03-02T08:11:33.179Z,25.73
2023-03-02T08:14:02.690Z,24.67
2023-03-02T08:16:34.096Z,27.90
2023-03-02T08:19:04.369Z,26.52
2023-03-02T08:21:34.024Z,27.42
2023-03-02T08:24:03.021Z,26.00
2023-03-02T08:26:32.229Z,24.73
2023-03-02T08:29:00.998Z,27.50
2023-03-02T08:31:29.884Z,24.75
2023-03-02T08:33:59.471Z,24.63
2023-03-02T08:36:30.822Z,25.20
2023-03-02T08:38:59.692Z,26.40
2023-03-02T08:41:28.569Z,25.33
2023-03-02T08:43:57.839Z,25.40
2023-03-02T08:46:26.613Z,25.17
2023-03-02T08:48:55.456Z,23.58
2023-03-02T08:51:25.658Z,20.85
2023-03-02T08:53:56.745Z,21.48
2023-03-02T08:56:27.737Z,22.05
2023-03-02T08:58:59.905Z,23.48
2023-03-02T09:01:35.139Z,20.70
2023-03-02T09:04:05.324Z,20.42
2023-03-02T09:06:37.119Z,22.33
2023-03-02T09:09:08.566Z,21.13
2023-03-02T09:14:07.807Z,18.80
2023-03-02T09:16:36.690Z,20.17
2023-03-02T09:19:05.486Z,20.30
2023-03-02T09:21:37.293Z,20.27
2023-03-02T09:24:10.159Z,18.33
2023-03-02T09:26:39.393Z,17.38
2023-03-02T09:29:08.537Z,19.20
2023-03-02T09:31:38.501Z,18.88
2023-03-02T09:34:07.756Z,18.40
2023-03-02T09:36:36.692Z,17.48
2023-03-02T09:39:12.458Z,18.00
2023-03-02T09:42:11.607Z,16.95
2023-03-02T09:45:30.865Z,15.43
2023-03-02T09:48:13.036Z,18.27
2023-03-02T09:50:52.583Z,17.33
2023-03-02T09:53:36.029Z,16.80
2023-03-02T09:56:15.840Z,17.55
2023-03-02T09:58:51.085Z,16.20
2023-03-02T10:01:31.291Z,17.33
2023-03-02T10:04:10.729Z,17.90
2023-03-02T10:06:39.528Z,15.80
2023-03-02T10:09:10.857Z,16.33
2023-03-02T10:11:54.992Z,15.55
2023-03-02T10:14:27.315Z,15.93
2023-03-02T10:17:11.007Z,17.75
2023-03-02T10:22:17.244Z,16.63
2023-03-02T10:24:58.180Z,15.52
2023-03-02T10:27:36.042Z,16.10
2023-03-02T10:30:09.167Z,15.07
2023-03-02T10:32:43.160Z,16.27
2023-03-02T10:35:16.269Z,15.50
2023-03-02T10:37:46.257Z,16.58
2023-03-02T10:40:30.802Z,16.48
2023-03-02T10:43:01.823Z,16.77
2023-03-02T10:45:32.152Z,15.40
2023-03-02T10:48:04.890Z,16.23
2023-03-02T10:50:33.819Z,15.85
2023-03-02T10:53:05.129Z,14.30
2023-03-02T10:55:34.852Z,15.68
2023-03-02T10:58:08.653Z,16.23
2023-03-02T11:00:37.535Z,15.07
2023-03-02T11:03:21.781Z,14.77
2023-03-02T11:05:50.678Z,14.60
2023-03-02T11:08:21.856Z,16.55
2023-03-02T11:10:57.030Z,16.65
2023-03-02T11:13:32.556Z,18.02
2023-03-02T11:16:02.707Z,16.13
2023-03-02T11:18:36.437Z,16.83
2023-03-02T11:21:09.504Z,16.35
2023-03-02T11:23:50.313Z,17.30
2023-03-02T11:26:24.804Z,16.73
2023-03-02T11:29:01.219Z,16.25
2023-03-02T11:31:39.340Z,15.93
2023-03-02T11:34:19.922Z,15.93
2023-03-02T11:36:58.998Z,16.58
2023-03-02T11:39:33.414Z,15.18
2023-03-02T11:42:02.410Z,15.32
2023-03-02T11:44:32.554Z,14.85
2023-03-02T11:47:02.998Z,16.35
2023-03-02T11:49:39.316Z,14.95
2023-03-02T11:52:18.257Z,16.15
2023-03-02T11:54:50.663Z,14.93
2023-03-02T11:57:23.922Z,14.98
2023-03-02T11:59:56.117Z,14.25
2023-03-02T12:02:26.145Z,13.77
2023-03-02T12:05:04.389Z,14.88
2023-03-02T12:07:33.755Z,15.80
2023-03-02T12:10:07.204Z,14.77
2023-03-02T12:12:44.526Z,16.98
2023-03-02T12:15:40.825Z,15.00
2023-03-02T12:18:55.350Z,15.98
2023-03-02T12:21:27.225Z,15.82
2023-03-02T12:24:04.090Z,14.85
2023-03-02T12:26:37.487Z,15.75
2023-03-02T12:29:24.260Z,14.57
2023-03-02T12:31:56.898Z,15.55
2023-03-02T12:34:45.645Z,15.88
2023-03-02T12:37:19.329Z,17.40
2023-03-02T12:40:30.193Z,15.45
2023-03-02T12:43:20.323Z,17.33
2023-03-02T12:46:20.592Z,16.90
2023-03-02T12:49:00.045Z,17.92
2023-03-02T12:51:34.786Z,16.50
2023-03-02T12:54:07.267Z,17.23
2023-03-02T12:56:38.389Z,17.52
2023-03-02T12:59:07.565Z,16.63
2023-03-02T13:01:36.416Z,18.13
2023-03-02T13:04:06.649Z,18.17
2023-03-02T13:06:40.208Z,17.75
2023-03-02T13:09:16.516Z,17.80
2023-03-02T13:11:45.644Z,18.75
2023-03-02T13:14:21.035Z,18.60
2023-03-02T13:17:02.952Z,18.08
2023-03-02T13:19:34.171Z,18.42
2023-03-02T13:22:03.162Z,18.95
2023-03-02T13:24:37.719Z,17.63
2023-03-02T13:27:08.619Z,18.52
2023-03-02T13:29:39.544Z,17.35
2023-03-02T13:32:19.949Z,17.38
2023-03-02T13:34:51.940Z,16.65
2023-03-02T13:37:34.997Z,15.40
2023-03-02T13:40:07.923Z,16.40
2023-03-02T13:42:40.576Z,17.80
2023-03-02T13:45:23.921Z,17.40
2023-03-02T13:50:26.117Z,16.65
2023-03-02T13:52:57.810Z,17.88
2023-03-02T13:55:28.829Z,18.90
2023-03-02T13:57:58.523Z,18.05
2023-03-02T14:00:33.351Z,17.15
2023-03-02T14:03:03.304Z,17.50
2023-03-02T14:05:34.120Z,18.27
2023-03-02T14:08:04.172Z,18.38
2023-03-02T14:10:33.509Z,16.67
2023-03-02T14:13:07.327Z,19.83
2023-03-02T14:15:41.789Z,17.50
2023-03-02T14:18:25.840Z,18.42
2023-03-02T14:20:57.435Z,20.60
2023-03-02T14:23:27.391Z,18.45
2023-03-02T14:25:57.813Z,19.00
2023-03-02T14:28:32.578Z,18.50
2023-03-02T14:31:01.832Z,16.90
2023-03-02T14:33:30.788Z,17.70
2023-03-02T14:36:01.495Z,18.45
2023-03-02T14:38:31.583Z,17.80
2023-03-02T14:41:00.542Z,18.02
2023-03-02T14:43:31.874Z,17.38
2023-03-02T14:46:01.297Z,18.70
2023-03-02T14:48:30.453Z,16.98
2023-03-02T14:51:04.178Z,18.08
2023-03-02T14:53:36.325Z,16.55
2023-03-02T14:56:08.043Z,19.75
2023-03-02T14:58:39.233Z,17.10
2023-03-02T15:01:08.683Z,16.40
2023-03-02T15:03:37.926Z,16.50
2023-03-02T15:06:24.917Z,16.98
2023-03-02T15:08:54.212Z,17.85
2023-03-02T15:11:26.589Z,17.23
2023-03-02T15:13:55.980Z,15.63
2023-03-02T15:16:25.522Z,16.58
2023-03-02T15:18:54.676Z,17.40
2023-03-02T15:21:26.109Z,16.75
2023-03-02T15:23:55.160Z,16.30
2023-03-02T15:26:24.182Z,18.15
2023-03-02T15:28:53.180Z,17.23
2023-03-02T15:31:25.067Z,17.05
2023-03-02T15:33:56.929Z,17.60
2023-03-02T15:36:27.502Z,17.80
2023-03-02T15:38:56.514Z,16.13
2023-03-02T15:41:26.021Z,18.08
2023-03-02T15:43:55.706Z,18.08
2023-03-02T15:46:25.477Z,16.83
2023-03-02T15:48:57.200Z,16.58
2023-03-02T15:51:28.028Z,18.70
2023-03-02T15:53:57.214Z,19.63
2023-03-02T15:56:30.460Z,19.38
2023-03-02T15:59:05.028Z,18.80
2023-03-02T16:01:34.524Z,20.50
2023-03-02T16:04:03.487Z,19.63
2023-03-02T16:06:34.171Z,17.42
2023-03-02T16:09:06.292Z,18.83
2023-03-02T16:11:37.651Z,17.95
2023-03-02T16:14:07.227Z,18.80
2023-03-02T16:16:36.663Z,19.75
2023-03-02T16:19:11.814Z,17.57
2023-03-02T16:21:42.605Z,18.60
2023-03-02T16:24:13.156Z,18.08
2023-03-02T16:26:42.698Z,19.58
2023-03-02T16:29:13.655Z,18.20
2023-03-02T16:31:43.490Z,18.80
2023-03-02T16:34:15.756Z,17.38
2023-03-02T16:36:46.768Z,17.25
2023-03-02T16:39:16.585Z,15.80
2023-03-02T16:41:46.904Z,16.92
2023-03-02T16:44:18.336Z,17.30
2023-03-02T16:46:48.332Z,15.65
2023-03-02T16:49:18.176Z,16.00
2023-03-02T16:51:48.654Z,14.55
2023-03-02T16:54:19.690Z,15.30
2023-03-02T16:56:48.672Z,16.40
2023-03-02T16:59:17.947Z,14.68
2023-03-02T17:01:47.226Z,16.00
2023-03-02T17:04:18.447Z,16.02
2023-03-02T17:07:00.516Z,16.23
2023-03-02T17:09:30.496Z,13.45
2023-03-02T17:11:59.919Z,15.07
2023-03-02T17:14:31.953Z,14.15
2023-03-02T17:17:03.626Z,14.63
2023-03-02T17:19:32.780Z,23.98
2023-03-02T17:22:03.938Z,21.33
2023-03-02T17:27:08.596Z,65.20
2023-03-02T17:29:39.983Z,14.88
2023-03-02T17:32:09.874Z,14.82
2023-03-02T17:34:39.017Z,13.10
2023-03-02T17:37:09.556Z,14.75
2023-03-02T17:39:39.013Z,13.27
2023-03-02T17:42:08.463Z,13.75
2023-03-02T17:44:40.155Z,13.90
2023-03-02T17:47:09.299Z,13.73
2023-03-02T17:49:39.726Z,15.00
2023-03-02T17:52:10.875Z,14.40
2023-03-02T17:54:41.014Z,15.52
2023-03-02T17:57:11.173Z,15.70
2023-03-02T17:59:40.640Z,15.60
2023-03-02T18:02:11.483Z,15.98
2023-03-02T18:04:40.739Z,16.63
2023-03-02T18:07:11.327Z,15.57
2023-03-02T18:09:40.689Z,15.02
2023-03-02T18:12:10.377Z,15.43
2023-03-02T18:14:39.722Z,15.68
2023-03-02T18:17:10.201Z,17.40
2023-03-02T18:19:39.482Z,65.15
2023-03-02T18:22:08.652Z,30.80
2023-03-02T18:24:39.278Z,17.10
2023-03-02T18:27:08.788Z,17.27
2023-03-02T18:29:38.067Z,15.32
2023-03-02T18:32:07.557Z,16.13
2023-03-02T18:34:36.807Z,15.93
2023-03-02T18:37:06.295Z,15.95
2023-03-02T18:39:35.861Z,16.25
2023-03-02T18:42:07.343Z,13.55
2023-03-02T18:44:36.459Z,14.32
2023-03-02T18:47:08.764Z,13.73
2023-03-02T18:49:38.304Z,13.85
2023-03-02T18:52:07.549Z,13.73
2023-03-02T18:54:39.430Z,14.05
2023-03-02T18:57:10.116Z,13.95
2023-03-02T18:59:39.341Z,14.88
2023-03-02T19:02:10.567Z,13.55
2023-03-02T19:04:40.127Z,13.77
2023-03-02T19:07:12.866Z,14.50
2023-03-02T19:09:42.231Z,13.35
2023-03-02T19:12:12.969Z,14.35
2023-03-02T19:14:43.487Z,12.98
2023-03-02T19:17:15.141Z,14.75
2023-03-02T19:19:44.163Z,14.10
2023-03-02T19:22:14.281Z,14.02
2023-03-02T19:24:44.397Z,13.18
2023-03-02T19:27:15.460Z,14.35
2023-03-02T19:29:45.384Z,14.45
2023-03-02T19:32:15.350Z,15.52
2023-03-02T19:34:44.619Z,14.13
2023-03-02T19:37:14.132Z,13.95
2023-03-02T19:39:43.527Z,13.80
2023-03-02T19:42:13.204Z,20.00
2023-03-02T19:44:44.190Z,18.83
2023-03-02T19:47:13.894Z,16.05
2023-03-02T19:49:43.628Z,15.07
2023-03-02T19:52:13.482Z,14.15
2023-03-02T19:54:43.623Z,14.77
2023-03-02T19:57:14.986Z,14.57
2023-03-02T19:59:46.526Z,14.70
2023-03-02T20:02:16.731Z,14.40
2023-03-02T20:04:46.959Z,13.52
2023-03-02T20:07:16.727Z,13.20
2023-03-02T20:09:48.740Z,13.73
2023-03-02T20:12:19.823Z,13.35
2023-03-02T20:14:51.531Z,13.20
2023-03-02T20:17:21.655Z,14.18
2023-03-02T20:19:52.650Z,13.20
2023-03-02T20:22:22.444Z,13.25
2023-03-02T20:24:52.069Z,12.23
2023-03-02T20:27:21.808Z,13.93
2023-03-02T20:29:52.407Z,13.27
2023-03-02T20:32:21.817Z,13.18
2023-03-02T20:34:51.406Z,12.65
2023-03-02T20:37:25.909Z,12.68
2023-03-02T20:39:55.122Z,13.40
2023-03-02T20:42:24.349Z,13.45
2023-03-02T20:44:56.504Z,12.95
2023-03-02T20:47:25.675Z,13.10
2023-03-02T20:49:59.696Z,11.93
2023-03-02T20:52:29.292Z,15.77
2023-03-02T20:54:58.413Z,16.73
2023-03-02T20:57:27.816Z,16.25
2023-03-02T20:59:59.027Z,13.45
2023-03-02T21:02:28.201Z,12.45
2023-03-02T21:04:57.691Z,13.13
2023-03-02T21:07:29.186Z,11.95
2023-03-02T21:09:58.918Z,11.07
2023-03-02T21:12:28.297Z,11.27
2023-03-02T21:14:59.407Z,11.85
2023-03-02T21:17:29.066Z,12.23
2023-03-02T21:19:59.002Z,11.52
2023-03-02T21:22:28.647Z,11.35
2023-03-02T21:24:58.446Z,9.90
2023-03-02T21:27:30.075Z,10.40
2023-03-02T21:30:03.387Z,9.90
2023-03-02T21:32:32.279Z,9.18
2023-03-02T21:35:02.934Z,9.75
2023-03-02T21:37:31.960Z,11.10
2023-03-02T21:40:01.729Z,9.45
2023-03-02T21:42:31.300Z,9.45
2023-03-02T21:45:02.195Z,9.55
2023-03-02T21:47:31.572Z,10.55
2023-03-02T21:50:01.497Z,9.63
2023-03-02T21:52:30.553Z,10.18
2023-03-02T21:55:02.004Z,8.80
2023-03-02T21:57:31.170Z,9.38
2023-03-02T22:00:04.204Z,8.85
2023-03-02T22:05:04.649Z,7.68
2023-03-02T22:07:35.891Z,8.68
2023-03-02T22:10:05.546Z,8.43
2023-03-02T22:12:34.724Z,8.93
2023-03-02T22:15:14.324Z,7.75
2023-03-02T22:17:46.176Z,8.75
2023-03-02T22:20:19.626Z,9.07
2023-03-02T22:25:22.620Z,7.50
2023-03-02T22:27:52.232Z,7.65
2023-03-02T22:30:24.913Z,7.65
2023-03-02T22:32:54.910Z,8.82
2023-03-02T22:35:26.529Z,8.63
2023-03-02T22:38:03.292Z,8.70
2023-03-02T22:40:34.750Z,8.45
2023-03-02T22:43:15.984Z,9.05
2023-03-02T22:45:48.048Z,7.63
2023-03-02T22:48:20.567Z,9.77
2023-03-02T22:50:55.121Z,8.57
2023-03-02T22:53:27.513Z,8.60
2023-03-02T22:55:59.715Z,10.43
2023-03-02T22:58:32.585Z,8.82
2023-03-02T23:01:03.838Z,9.85
2023-03-02T23:03:39.836Z,8.88
2023-03-02T23:06:24.629Z,8.02
2023-03-02T23:08:55.445Z,9.07
2023-03-02T23:11:25.810Z,9.32
2023-03-02T23:13:56.025Z,8.80
2023-03-02T23:16:30.569Z,9.38
2023-03-02T23:19:03.741Z,10.05
2023-03-02T23:21:38.938Z,10.57
2023-03-02T23:24:10.508Z,10.82
2023-03-02T23:26:39.837Z,11.43
2023-03-02T23:29:09.110Z,11.73
2023-03-02T23:31:39.459Z,11.60
2023-03-02T23:34:08.772Z,11.38
2023-03-02T23:36:37.878Z,11.48
2023-03-02T23:39:10.180Z,11.88
2023-03-02T23:41:42.404Z,11.68
2023-03-02T23:44:11.492Z,13.23
2023-03-02T23:46:41.858Z,12.40
2023-03-02T23:49:11.929Z,12.80
2023-03-02T23:51:41.452Z,12.98
2023-03-02T23:54:14.005Z,12.45
2023-03-02T23:56:43.525Z,14.80
2023-03-02T23:59:12.464Z,13.77
